sensor_id;sensor_type;location;lat;lon;timestamp;P1;durP1;ratioP1;P2;durP2;ratioP2
70829;SDS011;58451;51.550;7.208;2023-06-14T00:01:23;8.80;;;4.80;;
70829;SDS011;58451;51.550;7.208;2023-06-14T00:02:55;12.60;;;5.50;;
70829;SDS011;58451;51.550;7.208;2023-06-14T00:04:28;9.80;;;5.50;;
70829;SDS011;58451;51.550;7.208;2023-06-14T00:06:00;10.10;;;5.40;;
70829;SDS011;58451;51.550;7.208;2023-06-14T00:07:37;10.70;;;5.20;;
70829;SDS011;58451;51.550;7.208;2023-06-14T00:09:14;11.30;;;5.20;;
70829;SDS011;58451;51.550;7.208;2023-06-14T00:10:46;10.20;;;5.40;;
70829;SDS011;58451;51.550;7.208;2023-06-14T00:12:18;9.20;;;5.20;;
70829;SDS011;58451;51.550;7.208;2023-06-14T00:13:50;10.30;;;5.40;;
70829;SDS011;58451;51.550;7.208;2023-06-14T00:15:22;11.40;;;5.00;;
70829;SDS011;58451;51.550;7.208;2023-06-14T00:16:55;10.10;;;4.80;;
70829;SDS011;58451;51.550;7.208;2023-06-14T00:18:30;10.30;;;5.20;;
70829;SDS011;58451;51.550;7.208;2023-06-14T00:20:03;11.50;;;4.80;;
70829;SDS011;58451;51.550;7.208;2023-06-14T00:21:39;10.20;;;5.20;;
70829;SDS011;58451;51.550;7.208;2023-06-14T00:23:12;9.50;;;5.00;;
70829;SDS011;58451;51.550;7.208;2023-06-14T00:24:44;9.90;;;5.00;;
70829;SDS011;58451;51.550;7.208;2023-06-14T00:26:15;10.00;;;4.80;;
70829;SDS011;58451;51.550;7.208;2023-06-14T00:27:48;8.80;;;4.80;;
70829;SDS011;58451;51.550;7.208;2023-06-14T00:29:20;8.60;;;4.80;;
70829;SDS011;58451;51.550;7.208;2023-06-14T00:30:52;8.90;;;4.60;;
70829;SDS011;58451;51.550;7.208;2023-06-14T00:32:25;9.00;;;4.80;;
70829;SDS011;58451;51.550;7.208;2023-06-14T00:34:00;8.80;;;4.60;;
70829;SDS011;58451;51.550;7.208;2023-06-14T00:35:32;9.30;;;4.90;;
70829;SDS011;58451;51.550;7.208;2023-06-14T00:37:04;10.50;;;4.60;;
70829;SDS011;58451;51.550;7.208;2023-06-14T00:38:36;8.80;;;4.00;;
70829;SDS011;58451;51.550;7.208;2023-06-14T00:40:08;8.70;;;4.60;;
70829;SDS011;58451;51.550;7.208;2023-06-14T00:41:41;8.80;;;4.40;;
70829;SDS011;58451;51.550;7.208;2023-06-14T00:43:13;8.80;;;4.80;;
70829;SDS011;58451;51.550;7.208;2023-06-14T00:44:47;8.70;;;4.80;;
70829;SDS011;58451;51.550;7.208;2023-06-14T00:46:19;9.00;;;4.40;;
70829;SDS011;58451;51.550;7.208;2023-06-14T00:47:52;8.50;;;4.20;;
70829;SDS011;58451;51.550;7.208;2023-06-14T00:49:29;8.40;;;4.40;;
70829;SDS011;58451;51.550;7.208;2023-06-14T00:51:01;8.10;;;3.90;;
70829;SDS011;58451;51.550;7.208;2023-06-14T00:52:36;9.80;;;4.60;;
70829;SDS011;58451;51.550;7.208;2023-06-14T00:54:08;11.00;;;4.40;;
70829;SDS011;58451;51.550;7.208;2023-06-14T00:55:41;9.00;;;4.20;;
70829;SDS011;58451;51.550;7.208;2023-06-14T00:57:13;8.40;;;4.30;;
70829;SDS011;58451;51.550;7.208;2023-06-14T00:58:45;8.90;;;4.20;;
70829;SDS011;58451;51.550;7.208;2023-06-14T01:00:18;9.80;;;4.20;;
70829;SDS011;58451;51.550;7.208;2023-06-14T01:01:50;8.40;;;4.20;;
70829;SDS011;58451;51.550;7.208;2023-06-14T01:03:22;9.80;;;3.90;;
70829;SDS011;58451;51.550;7.208;2023-06-14T01:04:55;8.30;;;3.90;;
70829;SDS011;58451;51.550;7.208;2023-06-14T01:07:09;7.40;;;3.40;;
70829;SDS011;58451;51.550;7.208;2023-06-14T01:10:47;9.90;;;4.10;;
70829;SDS011;58451;51.550;7.208;2023-06-14T01:12:40;9.20;;;4.10;;
70829;SDS011;58451;51.550;7.208;2023-06-14T01:14:21;8.80;;;3.90;;
70829;SDS011;58451;51.550;7.208;2023-06-14T01:15:54;7.90;;;3.80;;
70829;SDS011;58451;51.550;7.208;2023-06-14T01:17:28;8.90;;;3.70;;
70829;SDS011;58451;51.550;7.208;2023-06-14T01:19:03;8.80;;;3.90;;
70829;SDS011;58451;51.550;7.208;2023-06-14T01:20:36;8.90;;;3.60;;
70829;SDS011;58451;51.550;7.208;2023-06-14T01:22:10;8.00;;;3.70;;
70829;SDS011;58451;51.550;7.208;2023-06-14T01:23:42;9.20;;;3.80;;
70829;SDS011;58451;51.550;7.208;2023-06-14T01:25:14;10.10;;;3.70;;
70829;SDS011;58451;51.550;7.208;2023-06-14T01:26:50;9.60;;;3.50;;
70829;SDS011;58451;51.550;7.208;2023-06-14T01:28:27;7.60;;;3.30;;
70829;SDS011;58451;51.550;7.208;2023-06-14T01:30:04;10.20;;;3.40;;
70829;SDS011;58451;51.550;7.208;2023-06-14T01:31:37;8.20;;;3.60;;
70829;SDS011;58451;51.550;7.208;2023-06-14T01:33:14;9.30;;;3.90;;
70829;SDS011;58451;51.550;7.208;2023-06-14T01:34:49;11.10;;;3.70;;
70829;SDS011;58451;51.550;7.208;2023-06-14T01:36:22;9.80;;;3.90;;
70829;SDS011;58451;51.550;7.208;2023-06-14T01:37:56;6.60;;;2.80;;
70829;SDS011;58451;51.550;7.208;2023-06-14T01:39:30;8.60;;;3.40;;
70829;SDS011;58451;51.550;7.208;2023-06-14T01:41:04;8.00;;;3.20;;
70829;SDS011;58451;51.550;7.208;2023-06-14T01:42:38;9.00;;;3.10;;
70829;SDS011;58451;51.550;7.208;2023-06-14T01:44:13;9.90;;;3.50;;
70829;SDS011;58451;51.550;7.208;2023-06-14T01:45:48;7.70;;;3.00;;
70829;SDS011;58451;51.550;7.208;2023-06-14T01:47:22;9.50;;;3.30;;
70829;SDS011;58451;51.550;7.208;2023-06-14T01:48:56;8.40;;;3.50;;
70829;SDS011;58451;51.550;7.208;2023-06-14T01:50:30;9.50;;;3.30;;
70829;SDS011;58451;51.550;7.208;2023-06-14T01:52:03;9.30;;;3.10;;
70829;SDS011;58451;51.550;7.208;2023-06-14T01:53:35;7.50;;;3.40;;
70829;SDS011;58451;51.550;7.208;2023-06-14T01:55:08;11.10;;;3.70;;
70829;SDS011;58451;51.550;7.208;2023-06-14T01:56:40;10.50;;;3.20;;
70829;SDS011;58451;51.550;7.208;2023-06-14T01:58:13;9.50;;;3.10;;
70829;SDS011;58451;51.550;7.208;2023-06-14T01:59:46;9.00;;;3.40;;
70829;SDS011;58451;51.550;7.208;2023-06-14T02:01:20;7.90;;;3.20;;
70829;SDS011;58451;51.550;7.208;2023-06-14T02:02:53;9.80;;;3.30;;
70829;SDS011;58451;51.550;7.208;2023-06-14T02:04:25;8.50;;;3.30;;
70829;SDS011;58451;51.550;7.208;2023-06-14T02:05:57;9.70;;;3.30;;
70829;SDS011;58451;51.550;7.208;2023-06-14T02:07:29;7.40;;;2.80;;
70829;SDS011;58451;51.550;7.208;2023-06-14T02:09:02;7.50;;;2.90;;
70829;SDS011;58451;51.550;7.208;2023-06-14T02:10:35;9.50;;;3.50;;
70829;SDS011;58451;51.550;7.208;2023-06-14T02:12:08;9.30;;;3.20;;
70829;SDS011;58451;51.550;7.208;2023-06-14T02:13:41;6.90;;;2.80;;
70829;SDS011;58451;51.550;7.208;2023-06-14T02:15:13;7.30;;;2.90;;
70829;SDS011;58451;51.550;7.208;2023-06-14T02:16:48;7.70;;;2.80;;
70829;SDS011;58451;51.550;7.208;2023-06-14T02:18:21;10.20;;;3.20;;
70829;SDS011;58451;51.550;7.208;2023-06-14T02:19:53;8.20;;;3.10;;
70829;SDS011;58451;51.550;7.208;2023-06-14T02:21:24;7.80;;;2.80;;
70829;SDS011;58451;51.550;7.208;2023-06-14T02:22:56;6.90;;;2.60;;
70829;SDS011;58451;51.550;7.208;2023-06-14T02:24:29;8.20;;;3.00;;
70829;SDS011;58451;51.550;7.208;2023-06-14T02:26:02;7.10;;;2.80;;
70829;SDS011;58451;51.550;7.208;2023-06-14T02:27:35;7.60;;;2.70;;
70829;SDS011;58451;51.550;7.208;2023-06-14T02:29:07;6.50;;;3.00;;
70829;SDS011;58451;51.550;7.208;2023-06-14T02:30:44;8.90;;;3.10;;
70829;SDS011;58451;51.550;7.208;2023-06-14T02:32:16;7.80;;;2.90;;
70829;SDS011;58451;51.550;7.208;2023-06-14T02:33:49;17.30;;;3.10;;
70829;SDS011;58451;51.550;7.208;2023-06-14T02:35:21;6.90;;;3.20;;
70829;SDS011;58451;51.550;7.208;2023-06-14T02:36:56;7.80;;;2.90;;
70829;SDS011;58451;51.550;7.208;2023-06-14T02:38:30;8.70;;;3.10;;
70829;SDS011;58451;51.550;7.208;2023-06-14T02:40:02;7.30;;;2.80;;
70829;SDS011;58451;51.550;7.208;2023-06-14T02:41:36;7.50;;;3.10;;
70829;SDS011;58451;51.550;7.208;2023-06-14T02:43:08;7.80;;;3.00;;
70829;SDS011;58451;51.550;7.208;2023-06-14T02:44:40;5.60;;;2.40;;
70829;SDS011;58451;51.550;7.208;2023-06-14T02:46:13;6.60;;;2.70;;
70829;SDS011;58451;51.550;7.208;2023-06-14T02:47:45;8.10;;;2.90;;
70829;SDS011;58451;51.550;7.208;2023-06-14T02:49:18;7.70;;;3.00;;
70829;SDS011;58451;51.550;7.208;2023-06-14T02:50:50;7.60;;;3.10;;
70829;SDS011;58451;51.550;7.208;2023-06-14T02:52:23;7.20;;;3.10;;
70829;SDS011;58451;51.550;7.208;2023-06-14T02:53:56;7.20;;;2.70;;
70829;SDS011;58451;51.550;7.208;2023-06-14T02:55:28;6.40;;;3.00;;
70829;SDS011;58451;51.550;7.208;2023-06-14T02:57:01;5.30;;;2.50;;
70829;SDS011;58451;51.550;7.208;2023-06-14T02:58:33;6.30;;;3.00;;
70829;SDS011;58451;51.550;7.208;2023-06-14T03:00:06;8.00;;;2.70;;
70829;SDS011;58451;51.550;7.208;2023-06-14T03:01:42;6.50;;;2.70;;
70829;SDS011;58451;51.550;7.208;2023-06-14T03:03:16;6.40;;;2.70;;
70829;SDS011;58451;51.550;7.208;2023-06-14T03:04:55;7.60;;;2.50;;
70829;SDS011;58451;51.550;7.208;2023-06-14T03:06:31;5.40;;;1.90;;
70829;SDS011;58451;51.550;7.208;2023-06-14T03:08:04;7.00;;;2.60;;
70829;SDS011;58451;51.550;7.208;2023-06-14T03:09:38;6.70;;;2.80;;
70829;SDS011;58451;51.550;7.208;2023-06-14T03:11:11;7.20;;;3.00;;
70829;SDS011;58451;51.550;7.208;2023-06-14T03:12:43;7.70;;;2.90;;
70829;SDS011;58451;51.550;7.208;2023-06-14T03:14:16;8.10;;;2.60;;
70829;SDS011;58451;51.550;7.208;2023-06-14T03:15:51;6.70;;;2.80;;
70829;SDS011;58451;51.550;7.208;2023-06-14T03:17:24;6.40;;;2.70;;
70829;SDS011;58451;51.550;7.208;2023-06-14T03:19:04;9.00;;;2.60;;
70829;SDS011;58451;51.550;7.208;2023-06-14T03:20:38;5.80;;;2.70;;
70829;SDS011;58451;51.550;7.208;2023-06-14T03:22:10;7.90;;;2.90;;
70829;SDS011;58451;51.550;7.208;2023-06-14T03:23:43;7.70;;;2.70;;
70829;SDS011;58451;51.550;7.208;2023-06-14T03:25:17;6.10;;;2.40;;
70829;SDS011;58451;51.550;7.208;2023-06-14T03:26:54;6.00;;;2.30;;
70829;SDS011;58451;51.550;7.208;2023-06-14T03:28:28;8.80;;;2.70;;
70829;SDS011;58451;51.550;7.208;2023-06-14T03:30:00;6.90;;;2.30;;
70829;SDS011;58451;51.550;7.208;2023-06-14T03:31:34;7.80;;;2.70;;
70829;SDS011;58451;51.550;7.208;2023-06-14T03:33:07;6.30;;;2.50;;
70829;SDS011;58451;51.550;7.208;2023-06-14T03:34:45;6.80;;;2.10;;
70829;SDS011;58451;51.550;7.208;2023-06-14T03:36:21;7.50;;;2.80;;
70829;SDS011;58451;51.550;7.208;2023-06-14T03:37:55;7.90;;;2.50;;
70829;SDS011;58451;51.550;7.208;2023-06-14T03:39:28;8.00;;;2.60;;
70829;SDS011;58451;51.550;7.208;2023-06-14T03:41:00;6.60;;;2.70;;
70829;SDS011;58451;51.550;7.208;2023-06-14T03:42:36;6.80;;;2.40;;
70829;SDS011;58451;51.550;7.208;2023-06-14T03:44:08;6.30;;;2.10;;
70829;SDS011;58451;51.550;7.208;2023-06-14T03:45:40;9.40;;;2.50;;
70829;SDS011;58451;51.550;7.208;2023-06-14T03:47:12;7.50;;;2.60;;
70829;SDS011;58451;51.550;7.208;2023-06-14T03:48:46;8.10;;;2.00;;
70829;SDS011;58451;51.550;7.208;2023-06-14T03:50:18;8.80;;;2.80;;
70829;SDS011;58451;51.550;7.208;2023-06-14T03:51:50;8.90;;;2.80;;
70829;SDS011;58451;51.550;7.208;2023-06-14T03:53:25;9.90;;;2.60;;
70829;SDS011;58451;51.550;7.208;2023-06-14T03:54:59;5.70;;;2.00;;
70829;SDS011;58451;51.550;7.208;2023-06-14T03:56:37;7.00;;;2.20;;
70829;SDS011;58451;51.550;7.208;2023-06-14T03:58:10;6.50;;;2.50;;
70829;SDS011;58451;51.550;7.208;2023-06-14T03:59:43;5.80;;;2.60;;
70829;SDS011;58451;51.550;7.208;2023-06-14T04:01:15;7.40;;;2.00;;
70829;SDS011;58451;51.550;7.208;2023-06-14T04:02:47;8.10;;;2.90;;
70829;SDS011;58451;51.550;7.208;2023-06-14T04:04:19;6.50;;;2.30;;
70829;SDS011;58451;51.550;7.208;2023-06-14T04:05:52;7.60;;;2.70;;
70829;SDS011;58451;51.550;7.208;2023-06-14T04:07:28;7.60;;;2.60;;
70829;SDS011;58451;51.550;7.208;2023-06-14T04:09:00;6.30;;;2.00;;
70829;SDS011;58451;51.550;7.208;2023-06-14T04:10:34;7.30;;;2.00;;
70829;SDS011;58451;51.550;7.208;2023-06-14T04:12:07;6.70;;;3.00;;
70829;SDS011;58451;51.550;7.208;2023-06-14T04:13:40;7.30;;;2.30;;
70829;SDS011;58451;51.550;7.208;2023-06-14T04:15:12;8.10;;;2.50;;
70829;SDS011;58451;51.550;7.208;2023-06-14T04:16:56;6.40;;;2.20;;
70829;SDS011;58451;51.550;7.208;2023-06-14T04:18:28;6.30;;;2.40;;
70829;SDS011;58451;51.550;7.208;2023-06-14T04:20:01;7.70;;;2.70;;
70829;SDS011;58451;51.550;7.208;2023-06-14T04:21:37;9.50;;;2.70;;
70829;SDS011;58451;51.550;7.208;2023-06-14T04:23:14;6.20;;;2.40;;
70829;SDS011;58451;51.550;7.208;2023-06-14T04:24:53;7.40;;;2.50;;
70829;SDS011;58451;51.550;7.208;2023-06-14T04:26:40;6.80;;;2.30;;
70829;SDS011;58451;51.550;7.208;2023-06-14T04:28:17;7.90;;;2.50;;
70829;SDS011;58451;51.550;7.208;2023-06-14T04:29:52;7.30;;;2.50;;
70829;SDS011;58451;51.550;7.208;2023-06-14T04:31:30;7.10;;;1.90;;
70829;SDS011;58451;51.550;7.208;2023-06-14T04:33:07;5.90;;;2.40;;
70829;SDS011;58451;51.550;7.208;2023-06-14T04:34:43;9.40;;;2.70;;
70829;SDS011;58451;51.550;7.208;2023-06-14T04:36:16;7.30;;;2.30;;
70829;SDS011;58451;51.550;7.208;2023-06-14T04:37:51;9.10;;;2.50;;
70829;SDS011;58451;51.550;7.208;2023-06-14T04:39:27;7.90;;;2.30;;
70829;SDS011;58451;51.550;7.208;2023-06-14T04:41:00;7.20;;;2.20;;
70829;SDS011;58451;51.550;7.208;2023-06-14T04:42:34;9.00;;;2.50;;
70829;SDS011;58451;51.550;7.208;2023-06-14T04:44:12;7.40;;;2.40;;
70829;SDS011;58451;51.550;7.208;2023-06-14T04:45:48;6.40;;;2.30;;
70829;SDS011;58451;51.550;7.208;2023-06-14T04:47:21;4.40;;;1.70;;
70829;SDS011;58451;51.550;7.208;2023-06-14T04:48:54;5.30;;;1.70;;
70829;SDS011;58451;51.550;7.208;2023-06-14T04:50:26;6.80;;;2.40;;
70829;SDS011;58451;51.550;7.208;2023-06-14T04:51:59;6.50;;;2.70;;
70829;SDS011;58451;51.550;7.208;2023-06-14T04:53:44;5.90;;;2.10;;
70829;SDS011;58451;51.550;7.208;2023-06-14T04:55:17;11.40;;;2.80;;
70829;SDS011;58451;51.550;7.208;2023-06-14T04:56:52;6.20;;;2.30;;
70829;SDS011;58451;51.550;7.208;2023-06-14T04:58:28;6.70;;;2.50;;
70829;SDS011;58451;51.550;7.208;2023-06-14T05:00:00;7.60;;;2.60;;
70829;SDS011;58451;51.550;7.208;2023-06-14T05:01:36;6.10;;;2.30;;
70829;SDS011;58451;51.550;7.208;2023-06-14T05:03:09;5.50;;;2.30;;
70829;SDS011;58451;51.550;7.208;2023-06-14T05:04:45;8.00;;;2.60;;
70829;SDS011;58451;51.550;7.208;2023-06-14T05:06:19;5.10;;;2.20;;
70829;SDS011;58451;51.550;7.208;2023-06-14T05:07:51;5.60;;;2.60;;
70829;SDS011;58451;51.550;7.208;2023-06-14T05:09:24;6.30;;;2.60;;
70829;SDS011;58451;51.550;7.208;2023-06-14T05:10:56;5.70;;;2.70;;
70829;SDS011;58451;51.550;7.208;2023-06-14T05:12:28;6.20;;;2.40;;
70829;SDS011;58451;51.550;7.208;2023-06-14T05:14:02;5.00;;;2.60;;
70829;SDS011;58451;51.550;7.208;2023-06-14T05:15:33;5.00;;;2.10;;
70829;SDS011;58451;51.550;7.208;2023-06-14T05:17:06;7.60;;;2.40;;
70829;SDS011;58451;51.550;7.208;2023-06-14T05:18:38;7.00;;;2.40;;
70829;SDS011;58451;51.550;7.208;2023-06-14T05:20:12;8.20;;;2.60;;
70829;SDS011;58451;51.550;7.208;2023-06-14T05:21:44;5.90;;;2.20;;
70829;SDS011;58451;51.550;7.208;2023-06-14T05:23:17;7.10;;;2.50;;
70829;SDS011;58451;51.550;7.208;2023-06-14T05:24:50;9.40;;;2.60;;
70829;SDS011;58451;51.550;7.208;2023-06-14T05:26:23;7.10;;;2.60;;
70829;SDS011;58451;51.550;7.208;2023-06-14T05:27:56;9.00;;;2.60;;
70829;SDS011;58451;51.550;7.208;2023-06-14T05:29:28;7.80;;;2.60;;
70829;SDS011;58451;51.550;7.208;2023-06-14T05:31:02;6.30;;;1.90;;
70829;SDS011;58451;51.550;7.208;2023-06-14T05:32:34;8.20;;;2.80;;
70829;SDS011;58451;51.550;7.208;2023-06-14T05:34:06;5.70;;;2.40;;
70829;SDS011;58451;51.550;7.208;2023-06-14T05:35:40;7.10;;;2.40;;
70829;SDS011;58451;51.550;7.208;2023-06-14T05:37:13;8.20;;;2.40;;
70829;SDS011;58451;51.550;7.208;2023-06-14T05:38:45;6.00;;;2.20;;
70829;SDS011;58451;51.550;7.208;2023-06-14T05:40:18;5.80;;;2.00;;
70829;SDS011;58451;51.550;7.208;2023-06-14T05:41:50;8.60;;;2.50;;
70829;SDS011;58451;51.550;7.208;2023-06-14T05:43:22;6.70;;;2.20;;
70829;SDS011;58451;51.550;7.208;2023-06-14T05:44:54;6.80;;;2.30;;
70829;SDS011;58451;51.550;7.208;2023-06-14T05:46:27;6.10;;;2.30;;
70829;SDS011;58451;51.550;7.208;2023-06-14T05:48:00;6.40;;;2.60;;
70829;SDS011;58451;51.550;7.208;2023-06-14T05:49:31;8.90;;;2.60;;
70829;SDS011;58451;51.550;7.208;2023-06-14T05:51:03;7.90;;;2.50;;
70829;SDS011;58451;51.550;7.208;2023-06-14T05:52:35;7.60;;;2.70;;
70829;SDS011;58451;51.550;7.208;2023-06-14T05:54:08;8.80;;;2.60;;
70829;SDS011;58451;51.550;7.208;2023-06-14T05:55:40;7.00;;;2.50;;
70829;SDS011;58451;51.550;7.208;2023-06-14T05:57:12;5.50;;;2.00;;
70829;SDS011;58451;51.550;7.208;2023-06-14T05:58:47;7.90;;;2.30;;
70829;SDS011;58451;51.550;7.208;2023-06-14T06:00:19;7.40;;;2.00;;
70829;SDS011;58451;51.550;7.208;2023-06-14T06:01:51;6.10;;;2.50;;
70829;SDS011;58451;51.550;7.208;2023-06-14T06:03:23;7.30;;;2.50;;
70829;SDS011;58451;51.550;7.208;2023-06-14T06:04:55;7.20;;;2.60;;
70829;SDS011;58451;51.550;7.208;2023-06-14T06:06:27;8.40;;;2.30;;
70829;SDS011;58451;51.550;7.208;2023-06-14T06:07:59;7.10;;;2.50;;
70829;SDS011;58451;51.550;7.208;2023-06-14T06:09:32;7.40;;;2.50;;
70829;SDS011;58451;51.550;7.208;2023-06-14T06:11:04;8.40;;;2.70;;
70829;SDS011;58451;51.550;7.208;2023-06-14T06:12:36;6.40;;;2.40;;
70829;SDS011;58451;51.550;7.208;2023-06-14T06:14:08;5.90;;;2.20;;
70829;SDS011;58451;51.550;7.208;2023-06-14T06:15:40;8.70;;;2.20;;
70829;SDS011;58451;51.550;7.208;2023-06-14T06:17:11;7.60;;;2.40;;
70829;SDS011;58451;51.550;7.208;2023-06-14T06:18:43;7.80;;;2.60;;
70829;SDS011;58451;51.550;7.208;2023-06-14T06:20:16;6.20;;;2.40;;
70829;SDS011;58451;51.550;7.208;2023-06-14T06:21:48;4.20;;;2.20;;
70829;SDS011;58451;51.550;7.208;2023-06-14T06:23:20;6.30;;;2.20;;
70829;SDS011;58451;51.550;7.208;2023-06-14T06:24:52;5.80;;;2.10;;
70829;SDS011;58451;51.550;7.208;2023-06-14T06:26:24;5.10;;;2.00;;
70829;SDS011;58451;51.550;7.208;2023-06-14T06:27:58;6.80;;;2.20;;
70829;SDS011;58451;51.550;7.208;2023-06-14T06:29:30;5.50;;;2.30;;
70829;SDS011;58451;51.550;7.208;2023-06-14T06:31:02;8.20;;;2.30;;
70829;SDS011;58451;51.550;7.208;2023-06-14T06:32:35;7.00;;;2.40;;
70829;SDS011;58451;51.550;7.208;2023-06-14T06:34:07;6.20;;;2.90;;
70829;SDS011;58451;51.550;7.208;2023-06-14T06:35:39;7.40;;;2.60;;
70829;SDS011;58451;51.550;7.208;2023-06-14T06:37:12;7.80;;;2.50;;
70829;SDS011;58451;51.550;7.208;2023-06-14T06:38:45;5.50;;;2.30;;
70829;SDS011;58451;51.550;7.208;2023-06-14T06:40:17;5.70;;;2.30;;
70829;SDS011;58451;51.550;7.208;2023-06-14T06:41:49;6.80;;;2.30;;
70829;SDS011;58451;51.550;7.208;2023-06-14T06:43:23;7.30;;;2.30;;
70829;SDS011;58451;51.550;7.208;2023-06-14T06:44:55;5.70;;;2.30;;
70829;SDS011;58451;51.550;7.208;2023-06-14T06:46:26;7.20;;;2.50;;
70829;SDS011;58451;51.550;7.208;2023-06-14T06:47:58;5.90;;;2.40;;
70829;SDS011;58451;51.550;7.208;2023-06-14T06:49:30;7.10;;;2.30;;
70829;SDS011;58451;51.550;7.208;2023-06-14T06:51:02;4.30;;;1.80;;
70829;SDS011;58451;51.550;7.208;2023-06-14T06:52:34;6.60;;;2.30;;
70829;SDS011;58451;51.550;7.208;2023-06-14T06:54:06;5.20;;;2.60;;
70829;SDS011;58451;51.550;7.208;2023-06-14T06:55:39;7.60;;;2.40;;
70829;SDS011;58451;51.550;7.208;2023-06-14T06:57:11;5.10;;;2.40;;
70829;SDS011;58451;51.550;7.208;2023-06-14T06:58:43;5.80;;;2.60;;
70829;SDS011;58451;51.550;7.208;2023-06-14T07:00:15;6.00;;;2.30;;
70829;SDS011;58451;51.550;7.208;2023-06-14T07:01:49;8.10;;;2.50;;
70829;SDS011;58451;51.550;7.208;2023-06-14T07:03:25;5.70;;;2.00;;
70829;SDS011;58451;51.550;7.208;2023-06-14T07:04:56;5.80;;;2.30;;
70829;SDS011;58451;51.550;7.208;2023-06-14T07:06:28;6.50;;;2.30;;
70829;SDS011;58451;51.550;7.208;2023-06-14T07:08:01;7.60;;;2.90;;
70829;SDS011;58451;51.550;7.208;2023-06-14T07:09:34;3.80;;;2.10;;
70829;SDS011;58451;51.550;7.208;2023-06-14T07:11:05;5.20;;;2.40;;
70829;SDS011;58451;51.550;7.208;2023-06-14T07:12:37;6.50;;;2.30;;
70829;SDS011;58451;51.550;7.208;2023-06-14T07:14:11;4.10;;;2.00;;
70829;SDS011;58451;51.550;7.208;2023-06-14T07:15:43;5.40;;;1.90;;
70829;SDS011;58451;51.550;7.208;2023-06-14T07:17:15;3.50;;;1.80;;
70829;SDS011;58451;51.550;7.208;2023-06-14T07:18:47;4.80;;;1.80;;
70829;SDS011;58451;51.550;7.208;2023-06-14T07:20:19;5.90;;;2.30;;
70829;SDS011;58451;51.550;7.208;2023-06-14T07:21:52;4.80;;;2.20;;
70829;SDS011;58451;51.550;7.208;2023-06-14T07:23:25;7.40;;;2.40;;
70829;SDS011;58451;51.550;7.208;2023-06-14T07:24:57;6.90;;;2.20;;
70829;SDS011;58451;51.550;7.208;2023-06-14T07:26:28;6.20;;;2.20;;
70829;SDS011;58451;51.550;7.208;2023-06-14T07:28:00;5.70;;;2.40;;
70829;SDS011;58451;51.550;7.208;2023-06-14T07:29:32;6.40;;;2.10;;
70829;SDS011;58451;51.550;7.208;2023-06-14T07:31:04;5.30;;;2.00;;
70829;SDS011;58451;51.550;7.208;2023-06-14T07:32:36;4.10;;;2.00;;
70829;SDS011;58451;51.550;7.208;2023-06-14T07:34:08;6.80;;;2.10;;
70829;SDS011;58451;51.550;7.208;2023-06-14T07:35:40;3.70;;;1.90;;
70829;SDS011;58451;51.550;7.208;2023-06-14T07:37:13;4.50;;;2.10;;
70829;SDS011;58451;51.550;7.208;2023-06-14T07:38:46;4.20;;;2.00;;
70829;SDS011;58451;51.550;7.208;2023-06-14T07:40:17;5.70;;;2.10;;
70829;SDS011;58451;51.550;7.208;2023-06-14T07:41:49;4.70;;;2.10;;
70829;SDS011;58451;51.550;7.208;2023-06-14T07:43:21;6.60;;;2.10;;
70829;SDS011;58451;51.550;7.208;2023-06-14T07:44:53;4.80;;;2.10;;
70829;SDS011;58451;51.550;7.208;2023-06-14T07:46:25;6.40;;;1.90;;
70829;SDS011;58451;51.550;7.208;2023-06-14T07:47:57;6.80;;;1.90;;
70829;SDS011;58451;51.550;7.208;2023-06-14T07:49:29;4.50;;;1.70;;
70829;SDS011;58451;51.550;7.208;2023-06-14T07:51:01;6.20;;;2.20;;
70829;SDS011;58451;51.550;7.208;2023-06-14T07:52:33;7.70;;;2.00;;
70829;SDS011;58451;51.550;7.208;2023-06-14T07:54:05;5.50;;;1.80;;
70829;SDS011;58451;51.550;7.208;2023-06-14T07:55:38;6.60;;;1.80;;
70829;SDS011;58451;51.550;7.208;2023-06-14T07:57:24;5.90;;;2.30;;
70829;SDS011;58451;51.550;7.208;2023-06-14T07:58:56;4.70;;;1.70;;
70829;SDS011;58451;51.550;7.208;2023-06-14T08:00:27;4.90;;;1.80;;
70829;SDS011;58451;51.550;7.208;2023-06-14T08:01:59;4.60;;;1.80;;
70829;SDS011;58451;51.550;7.208;2023-06-14T08:03:32;5.50;;;1.90;;
70829;SDS011;58451;51.550;7.208;2023-06-14T08:05:04;5.70;;;1.80;;
70829;SDS011;58451;51.550;7.208;2023-06-14T08:06:36;6.10;;;2.20;;
70829;SDS011;58451;51.550;7.208;2023-06-14T08:08:11;6.40;;;2.60;;
70829;SDS011;58451;51.550;7.208;2023-06-14T08:09:44;6.90;;;2.40;;
70829;SDS011;58451;51.550;7.208;2023-06-14T08:11:15;5.20;;;2.00;;
70829;SDS011;58451;51.550;7.208;2023-06-14T08:12:48;4.70;;;2.30;;
70829;SDS011;58451;51.550;7.208;2023-06-14T08:14:22;5.50;;;2.30;;
70829;SDS011;58451;51.550;7.208;2023-06-14T08:15:54;5.40;;;2.50;;
70829;SDS011;58451;51.550;7.208;2023-06-14T08:17:28;4.20;;;2.10;;
70829;SDS011;58451;51.550;7.208;2023-06-14T08:19:00;6.50;;;2.70;;
70829;SDS011;58451;51.550;7.208;2023-06-14T08:20:32;4.20;;;2.20;;
70829;SDS011;58451;51.550;7.208;2023-06-14T08:22:06;6.90;;;2.40;;
70829;SDS011;58451;51.550;7.208;2023-06-14T08:23:38;5.40;;;2.30;;
70829;SDS011;58451;51.550;7.208;2023-06-14T08:25:10;7.10;;;2.30;;
70829;SDS011;58451;51.550;7.208;2023-06-14T08:26:44;6.30;;;1.90;;
70829;SDS011;58451;51.550;7.208;2023-06-14T08:28:15;5.20;;;2.70;;
70829;SDS011;58451;51.550;7.208;2023-06-14T08:29:47;5.10;;;1.80;;
70829;SDS011;58451;51.550;7.208;2023-06-14T08:31:19;4.90;;;1.90;;
70829;SDS011;58451;51.550;7.208;2023-06-14T08:32:51;5.20;;;2.10;;
70829;SDS011;58451;51.550;7.208;2023-06-14T08:34:41;4.30;;;1.90;;
70829;SDS011;58451;51.550;7.208;2023-06-14T08:36:23;5.70;;;1.70;;
70829;SDS011;58451;51.550;7.208;2023-06-14T08:37:55;5.10;;;2.00;;
70829;SDS011;58451;51.550;7.208;2023-06-14T08:39:27;5.90;;;2.00;;
70829;SDS011;58451;51.550;7.208;2023-06-14T08:41:00;3.90;;;1.80;;
70829;SDS011;58451;51.550;7.208;2023-06-14T08:42:33;4.40;;;1.70;;
70829;SDS011;58451;51.550;7.208;2023-06-14T08:44:06;4.10;;;1.50;;
70829;SDS011;58451;51.550;7.208;2023-06-14T08:45:38;3.90;;;1.60;;
70829;SDS011;58451;51.550;7.208;2023-06-14T08:47:11;3.70;;;1.40;;
70829;SDS011;58451;51.550;7.208;2023-06-14T08:48:46;6.10;;;1.50;;
70829;SDS011;58451;51.550;7.208;2023-06-14T08:50:21;3.90;;;1.70;;
70829;SDS011;58451;51.550;7.208;2023-06-14T08:52:03;3.90;;;1.60;;
70829;SDS011;58451;51.550;7.208;2023-06-14T08:53:39;3.60;;;1.80;;
70829;SDS011;58451;51.550;7.208;2023-06-14T08:55:14;3.20;;;1.50;;
70829;SDS011;58451;51.550;7.208;2023-06-14T08:56:46;3.90;;;1.50;;
70829;SDS011;58451;51.550;7.208;2023-06-14T08:58:20;4.10;;;1.70;;
70829;SDS011;58451;51.550;7.208;2023-06-14T08:59:56;3.00;;;1.30;;
70829;SDS011;58451;51.550;7.208;2023-06-14T09:01:28;4.70;;;1.70;;
70829;SDS011;58451;51.550;7.208;2023-06-14T09:03:01;4.30;;;1.50;;
70829;SDS011;58451;51.550;7.208;2023-06-14T09:04:33;4.10;;;1.50;;
70829;SDS011;58451;51.550;7.208;2023-06-14T09:06:05;3.90;;;1.40;;
70829;SDS011;58451;51.550;7.208;2023-06-14T09:07:37;3.60;;;1.40;;
70829;SDS011;58451;51.550;7.208;2023-06-14T09:09:10;3.40;;;1.60;;
70829;SDS011;58451;51.550;7.208;2023-06-14T09:10:42;2.80;;;1.60;;
70829;SDS011;58451;51.550;7.208;2023-06-14T09:12:16;3.10;;;1.40;;
70829;SDS011;58451;51.550;7.208;2023-06-14T09:13:49;4.20;;;1.30;;
70829;SDS011;58451;51.550;7.208;2023-06-14T09:15:21;4.30;;;1.50;;
70829;SDS011;58451;51.550;7.208;2023-06-14T09:16:54;4.80;;;1.60;;
70829;SDS011;58451;51.550;7.208;2023-06-14T09:18:39;2.80;;;1.30;;
70829;SDS011;58451;51.550;7.208;2023-06-14T09:20:12;2.90;;;1.20;;
70829;SDS011;58451;51.550;7.208;2023-06-14T09:21:49;3.90;;;1.30;;
70829;SDS011;58451;51.550;7.208;2023-06-14T09:23:24;4.50;;;1.50;;
70829;SDS011;58451;51.550;7.208;2023-06-14T09:24:56;4.60;;;1.50;;
70829;SDS011;58451;51.550;7.208;2023-06-14T09:26:28;4.30;;;1.70;;